createdAt,value
2023-01-21T00:00:30.365Z,10.20
2023-01-21T00:03:54.318Z,10.83
2023-01-21T00:06:54.374Z,9.80
2023-01-21T00:10:06.427Z,10.70
2023-01-21T00:13:20.341Z,9.65
2023-01-21T00:16:33.403Z,9.60
2023-01-21T00:19:33.415Z,10.13
2023-01-21T00:22:57.430Z,10.20
2023-01-21T00:26:09.412Z,11.00
2023-01-21T00:29:36.415Z,9.97
2023-01-21T00:32:36.502Z,9.27
2023-01-21T00:35:48.466Z,10.70
2023-01-21T00:39:00.441Z,9.83
2023-01-21T00:42:12.501Z,11.13
2023-01-21T00:45:26.509Z,8.90
2023-01-21T00:48:50.543Z,9.25
2023-01-21T00:51:50.553Z,10.67
2023-01-21T00:55:03.541Z,10.73
2023-01-21T00:58:03.578Z,11.50
2023-01-21T01:01:29.608Z,11.40
2023-01-21T01:04:29.552Z,10.20
2023-01-21T01:07:41.627Z,11.60
2023-01-21T01:10:53.555Z,10.47
2023-01-21T01:14:17.543Z,10.03
2023-01-21T01:17:34.621Z,11.03
2023-01-21T01:20:47.703Z,10.87
2023-01-21T01:23:47.644Z,11.77
2023-01-21T01:27:03.700Z,10.00
2023-01-21T01:30:03.611Z,11.27
2023-01-21T01:33:29.623Z,9.97
2023-01-21T01:36:41.680Z,11.13
2023-01-21T01:39:54.667Z,13.50
2023-01-21T01:43:06.694Z,13.10
2023-01-21T01:46:18.751Z,10.15
2023-01-21T01:49:32.656Z,11.93
2023-01-21T01:52:56.696Z,11.53
2023-01-21T01:56:08.693Z,12.03
2023-01-21T01:59:20.742Z,13.47
2023-01-21T02:02:32.803Z,13.67
2023-01-21T02:06:01.785Z,12.45
2023-01-21T02:09:16.771Z,11.70
2023-01-21T02:12:28.823Z,12.15
2023-01-21T02:15:52.775Z,13.75
2023-01-21T02:19:06.174Z,14.23
2023-01-21T02:22:33.783Z,13.00
2023-01-21T02:26:04.853Z,13.07
2023-01-21T02:29:38.849Z,13.40
2023-01-21T02:32:53.799Z,14.75
2023-01-21T02:36:20.931Z,13.13
2023-01-21T02:39:37.789Z,13.90
2023-01-21T02:43:01.852Z,13.33
2023-01-21T02:46:13.869Z,13.80
2023-01-21T02:49:39.907Z,13.65
2023-01-21T02:52:52.839Z,12.75
2023-01-21T02:56:19.894Z,13.03
2023-01-21T02:59:19.865Z,11.57
2023-01-21T03:02:44.055Z,12.33
2023-01-21T03:05:57.958Z,12.50
2023-01-21T03:09:23.905Z,14.35
2023-01-21T03:12:39.923Z,12.55
2023-01-21T03:16:09.264Z,13.50
2023-01-21T03:19:20.920Z,13.53
2023-01-21T03:22:44.964Z,12.17
2023-01-21T03:25:58.916Z,11.95
2023-01-21T03:29:23.009Z,12.77
2023-01-21T03:32:38.018Z,13.25
2023-01-21T03:36:01.990Z,12.20
2023-01-21T03:39:14.098Z,13.40
2023-01-21T03:42:40.058Z,12.63
2023-01-21T03:45:56.130Z,12.17
2023-01-21T03:49:20.071Z,11.97
2023-01-21T03:52:32.087Z,11.85
2023-01-21T03:55:44.096Z,12.40
2023-01-21T03:58:58.105Z,11.40
2023-01-21T04:02:10.225Z,11.87
2023-01-21T04:05:23.177Z,10.33
2023-01-21T04:08:25.061Z,12.07
2023-01-21T04:11:37.105Z,11.30
2023-01-21T04:14:51.159Z,11.30
2023-01-21T04:18:04.187Z,11.27
2023-01-21T04:21:04.143Z,11.43
2023-01-21T04:24:18.210Z,10.83
2023-01-21T04:27:21.180Z,11.23
2023-01-21T04:30:47.265Z,10.85
2023-01-21T04:33:47.214Z,10.50
2023-01-21T04:37:11.185Z,10.55
2023-01-21T04:40:11.273Z,12.17
2023-01-21T04:43:23.188Z,11.33
2023-01-21T04:46:36.348Z,12.15
2023-01-21T04:49:48.242Z,11.20
2023-01-21T04:53:00.283Z,11.33
2023-01-21T04:56:12.222Z,10.35
2023-01-21T04:59:12.260Z,11.07
2023-01-21T05:02:39.280Z,9.83
2023-01-21T05:05:42.344Z,10.40
2023-01-21T05:08:55.316Z,10.25
2023-01-21T05:11:55.289Z,9.67
2023-01-21T05:15:20.273Z,10.23
2023-01-21T05:18:36.388Z,10.63
2023-01-21T05:21:48.336Z,9.73
2023-01-21T05:24:48.316Z,10.17
2023-01-21T05:28:15.324Z,9.57
2023-01-21T05:31:31.060Z,10.27
2023-01-21T05:34:56.406Z,10.95
2023-01-21T05:37:57.834Z,11.17
2023-01-21T05:41:23.389Z,11.40
2023-01-21T05:44:23.457Z,11.23
2023-01-21T05:47:35.455Z,11.10
2023-01-21T05:50:49.430Z,12.43
2023-01-21T05:54:02.425Z,10.00
2023-01-21T05:57:02.467Z,11.33
2023-01-21T06:00:26.472Z,11.03
2023-01-21T06:03:38.581Z,10.87
2023-01-21T06:06:53.496Z,10.45
2023-01-21T06:10:05.534Z,10.85
2023-01-21T06:13:05.485Z,10.73
2023-01-21T06:16:19.584Z,10.97
2023-01-21T06:19:19.531Z,10.90
2023-01-21T06:22:48.538Z,10.20
2023-01-21T06:25:48.535Z,10.73
2023-01-21T06:29:00.568Z,11.70
2023-01-21T06:32:06.682Z,10.40
2023-01-21T06:35:18.605Z,10.77
2023-01-21T06:38:34.696Z,10.65
2023-01-21T06:41:46.572Z,10.70
2023-01-21T06:44:46.605Z,10.73
2023-01-21T06:48:10.666Z,11.13
2023-01-21T06:51:25.603Z,10.87
2023-01-21T06:54:51.655Z,10.23
2023-01-21T06:58:03.619Z,11.03
2023-01-21T07:01:27.660Z,10.80
2023-01-21T07:04:27.644Z,10.17
2023-01-21T07:07:39.719Z,11.50
2023-01-21T07:10:53.639Z,11.20
2023-01-21T07:14:20.712Z,11.40
2023-01-21T07:17:20.721Z,11.90
2023-01-21T07:20:33.743Z,10.73
2023-01-21T07:23:33.740Z,11.43
2023-01-21T07:27:02.794Z,12.60
2023-01-21T07:30:18.946Z,11.60
2023-01-21T07:33:31.747Z,11.03
2023-01-21T07:36:31.753Z,11.70
2023-01-21T07:39:43.739Z,11.35
2023-01-21T07:42:57.778Z,10.53
2023-01-21T07:46:21.839Z,11.00
2023-01-21T07:49:21.886Z,11.55
2023-01-21T07:52:34.893Z,10.30
2023-01-21T07:55:46.815Z,11.60
2023-01-21T07:59:12.760Z,11.07
2023-01-21T08:02:13.030Z,10.00
2023-01-21T08:05:24.844Z,11.20
2023-01-21T08:08:24.853Z,10.97
2023-01-21T08:11:36.813Z,10.10
2023-01-21T08:14:51.866Z,10.33
2023-01-21T08:18:04.847Z,10.83
2023-01-21T08:21:18.881Z,11.25
2023-01-21T08:24:42.906Z,10.40
2023-01-21T08:27:42.956Z,11.45
2023-01-21T08:31:08.987Z,11.63
2023-01-21T08:34:20.930Z,10.83
2023-01-21T08:37:33.870Z,10.10
2023-01-21T08:40:33.988Z,10.30
2023-01-21T08:43:45.985Z,10.50
2023-01-21T08:47:00.035Z,11.45
2023-01-21T08:50:11.904Z,10.35
2023-01-21T08:53:11.990Z,11.55
2023-01-21T08:56:23.984Z,11.63
2023-01-21T08:59:36.055Z,10.85
2023-01-21T09:03:04.993Z,9.80
2023-01-21T09:06:05.079Z,10.97
2023-01-21T09:09:18.022Z,10.60
2023-01-21T09:12:30.100Z,11.47
2023-01-21T09:15:42.095Z,11.00
2023-01-21T09:18:56.062Z,10.65
2023-01-21T09:22:09.048Z,9.97
2023-01-21T09:25:12.029Z,11.10
2023-01-21T09:28:25.323Z,11.07
2023-01-21T09:31:37.177Z,10.33
2023-01-21T09:35:03.078Z,10.87
2023-01-21T09:38:03.179Z,10.10
2023-01-21T09:41:27.130Z,11.63
2023-01-21T09:44:43.130Z,10.40
2023-01-21T09:48:07.138Z,10.37
2023-01-21T09:51:21.237Z,9.80
2023-01-21T09:54:48.158Z,9.73
2023-01-21T09:58:02.213Z,10.40
2023-01-21T10:01:27.274Z,10.30
2023-01-21T10:04:53.283Z,10.53
2023-01-21T10:08:07.181Z,10.97
2023-01-21T10:11:35.223Z,10.97
2023-01-21T10:14:50.240Z,11.20
2023-01-21T10:18:15.281Z,10.37
2023-01-21T10:21:28.247Z,11.20
2023-01-21T10:24:54.300Z,9.50
2023-01-21T10:28:06.241Z,9.70
2023-01-21T10:31:31.311Z,10.70
2023-01-21T10:34:43.270Z,9.80
2023-01-21T10:38:10.295Z,9.63
2023-01-21T10:41:24.279Z,10.25
2023-01-21T10:44:49.370Z,10.03
2023-01-21T10:48:02.371Z,10.17
2023-01-21T10:51:27.336Z,11.97
2023-01-21T10:54:39.408Z,10.50
2023-01-21T10:58:10.378Z,9.20
2023-01-21T11:01:22.417Z,12.00
2023-01-21T11:04:47.440Z,11.70
2023-01-21T11:07:59.337Z,11.77
2023-01-21T11:11:27.479Z,10.77
2023-01-21T11:14:41.447Z,12.50
2023-01-21T11:18:06.458Z,11.50
2023-01-21T11:21:19.415Z,10.75
2023-01-21T11:24:44.471Z,10.87
2023-01-21T11:27:59.487Z,12.20
2023-01-21T11:31:30.511Z,10.37
2023-01-21T11:34:42.446Z,10.77
2023-01-21T11:38:06.488Z,11.63
2023-01-21T11:41:30.495Z,11.90
2023-01-21T11:44:42.495Z,11.33
2023-01-21T11:47:56.577Z,12.43
2023-01-21T11:51:30.575Z,12.83
2023-01-21T11:54:42.516Z,13.50
2023-01-21T11:58:07.516Z,11.97
2023-01-21T12:01:19.517Z,11.17
2023-01-21T12:04:45.644Z,11.73
2023-01-21T12:08:00.668Z,10.80
2023-01-21T12:11:24.574Z,12.30
2023-01-21T12:14:38.565Z,10.73
2023-01-21T12:18:05.552Z,11.95
2023-01-21T12:21:19.630Z,11.23
2023-01-21T12:24:49.612Z,11.87
2023-01-21T12:28:02.677Z,12.15
2023-01-21T12:31:29.658Z,11.03
2023-01-21T12:34:41.640Z,10.47
2023-01-21T12:38:07.650Z,11.90
2023-01-21T12:41:19.732Z,12.10
2023-01-21T12:44:45.746Z,11.25
2023-01-21T12:47:58.271Z,11.75
2023-01-21T12:51:23.811Z,10.07
2023-01-21T12:54:37.773Z,10.07
2023-01-21T12:58:02.752Z,10.23
2023-01-21T13:01:14.820Z,10.53
2023-01-21T13:04:44.765Z,10.30
2023-01-21T13:07:58.742Z,10.00
2023-01-21T13:11:24.771Z,10.43
2023-01-21T13:14:40.740Z,10.00
2023-01-21T13:18:04.783Z,9.30
2023-01-21T13:21:16.798Z,10.25
2023-01-21T13:24:40.826Z,10.25
2023-01-21T13:27:54.872Z,10.30
2023-01-21T13:31:19.999Z,10.00
2023-01-21T13:34:31.877Z,10.00
2023-01-21T13:37:55.920Z,10.50
2023-01-21T13:41:11.905Z,9.83
2023-01-21T13:44:50.915Z,10.40
2023-01-21T13:48:11.936Z,9.00
2023-01-21T13:51:46.917Z,10.67
2023-01-21T13:55:10.906Z,9.57
2023-01-21T13:58:35.885Z,10.43
2023-01-21T14:01:50.017Z,9.43
2023-01-21T14:05:14.941Z,11.27
2023-01-21T14:08:26.922Z,10.17
2023-01-21T14:11:50.928Z,10.03
2023-01-21T14:15:11.981Z,9.73
2023-01-21T14:18:50.040Z,10.10
2023-01-21T14:22:14.025Z,9.23
2023-01-21T14:25:41.995Z,9.35
2023-01-21T14:28:56.959Z,10.57
2023-01-21T14:32:25.077Z,9.50
2023-01-21T14:35:41.071Z,9.77
2023-01-21T14:39:05.063Z,9.23
2023-01-21T14:42:26.104Z,9.97
2023-01-21T14:45:55.240Z,9.35
2023-01-21T14:49:07.083Z,9.63
2023-01-21T14:52:39.307Z,9.03
2023-01-21T14:55:51.025Z,8.60
2023-01-21T14:59:16.093Z,8.67
2023-01-21T15:02:28.162Z,7.93
2023-01-21T15:05:52.203Z,7.60
2023-01-21T15:09:06.139Z,8.97
2023-01-21T15:12:31.789Z,9.03
2023-01-21T15:15:50.169Z,8.53
2023-01-21T15:19:29.207Z,7.60
2023-01-21T15:22:42.215Z,9.03
2023-01-21T15:26:19.162Z,6.65
2023-01-21T15:29:47.236Z,7.35
2023-01-21T15:33:14.192Z,7.77
2023-01-21T15:36:26.292Z,7.07
2023-01-21T15:39:50.297Z,6.73
2023-01-21T15:43:08.440Z,6.80
2023-01-21T15:46:41.292Z,7.17
2023-01-21T15:49:55.294Z,7.83
2023-01-21T15:53:23.252Z,6.97
2023-01-21T15:56:45.308Z,7.10
2023-01-21T16:00:16.349Z,6.90
2023-01-21T16:03:42.364Z,7.25
2023-01-21T16:06:54.273Z,6.97
2023-01-21T16:10:20.364Z,7.15
2023-01-21T16:13:34.310Z,6.90
2023-01-21T16:17:03.333Z,6.70
2023-01-21T16:20:16.346Z,6.77
2023-01-21T16:23:43.420Z,6.17
2023-01-21T16:26:46.369Z,6.20
2023-01-21T16:30:10.402Z,6.25
2023-01-21T16:33:36.402Z,6.80
2023-01-21T16:37:01.424Z,5.93
2023-01-21T16:40:01.409Z,6.10
2023-01-21T16:43:29.483Z,5.90
2023-01-21T16:46:41.427Z,5.87
2023-01-21T16:50:08.446Z,6.77
2023-01-21T16:53:23.432Z,6.10
2023-01-21T16:56:50.467Z,5.57
2023-01-21T17:00:02.869Z,6.17
2023-01-21T17:03:15.464Z,7.10
2023-01-21T17:06:29.554Z,5.75
2023-01-21T17:09:54.536Z,6.03
2023-01-21T17:13:07.565Z,6.07
2023-01-21T17:16:43.493Z,6.00
2023-01-21T17:19:55.592Z,6.13
2023-01-21T17:23:20.536Z,5.65
2023-01-21T17:26:32.638Z,5.70
2023-01-21T17:29:56.616Z,5.65
2023-01-21T17:33:08.609Z,5.30
2023-01-21T17:36:33.589Z,5.63
2023-01-21T17:39:52.576Z,5.47
2023-01-21T17:43:19.642Z,5.40
2023-01-21T17:46:31.772Z,5.70
2023-01-21T17:49:55.724Z,5.33
2023-01-21T17:53:14.625Z,5.27
2023-01-21T17:56:26.663Z,5.67
2023-01-21T17:59:49.623Z,5.07
2023-01-21T18:02:52.679Z,5.35
2023-01-21T18:06:21.699Z,5.35
2023-01-21T18:09:33.706Z,5.23
2023-01-21T18:12:46.769Z,4.93
2023-01-21T18:16:01.776Z,5.10
2023-01-21T18:19:25.790Z,5.07
2023-01-21T18:22:38.781Z,5.23
2023-01-21T18:26:02.796Z,5.03
2023-01-21T18:29:02.792Z,5.50
2023-01-21T18:32:28.760Z,4.53
2023-01-21T18:35:40.736Z,5.60
2023-01-21T18:38:52.767Z,5.17
2023-01-21T18:42:08.734Z,4.93
2023-01-21T18:45:34.857Z,5.70
2023-01-21T18:48:48.824Z,4.97
2023-01-21T18:52:00.875Z,4.85
2023-01-21T18:55:00.823Z,5.30
2023-01-21T18:58:24.824Z,5.47
2023-01-21T19:01:36.924Z,4.87
2023-01-21T19:05:02.032Z,5.10
2023-01-21T19:08:01.871Z,5.63
2023-01-21T19:11:13.873Z,4.93
2023-01-21T19:14:14.863Z,6.00
2023-01-21T19:17:38.893Z,5.60
2023-01-21T19:20:52.881Z,5.37
2023-01-21T19:24:04.975Z,5.75
2023-01-21T19:27:04.925Z,5.93
2023-01-21T19:30:33.925Z,4.70
2023-01-21T19:33:34.029Z,4.93
2023-01-21T19:37:01.001Z,5.07
2023-01-21T19:40:01.023Z,5.50
2023-01-21T19:43:12.985Z,5.17
2023-01-21T19:46:13.090Z,5.50
2023-01-21T19:49:37.235Z,4.77
2023-01-21T19:52:51.001Z,5.80
2023-01-21T19:56:04.114Z,5.53
2023-01-21T19:59:04.052Z,5.37
2023-01-21T20:02:18.087Z,4.90
2023-01-21T20:05:30.204Z,5.07
2023-01-21T20:08:44.098Z,5.27
2023-01-21T20:11:57.073Z,6.13
2023-01-21T20:14:57.114Z,5.83
2023-01-21T20:18:21.097Z,5.45
2023-01-21T20:21:21.103Z,6.20
2023-01-21T20:24:47.142Z,5.55
2023-01-21T20:27:50.082Z,5.73
2023-01-21T20:31:14.200Z,5.77
2023-01-21T20:34:14.163Z,6.70
2023-01-21T20:37:38.173Z,6.35
2023-01-21T20:40:53.150Z,6.20
2023-01-21T20:44:05.151Z,6.47
2023-01-21T20:47:27.689Z,6.20
2023-01-21T20:50:46.269Z,6.10
2023-01-21T20:53:58.156Z,6.80
2023-01-21T20:57:24.214Z,5.70
2023-01-21T21:00:38.234Z,7.30
2023-01-21T21:03:50.181Z,6.97
2023-01-21T21:06:50.274Z,7.00
2023-01-21T21:10:06.213Z,6.87
2023-01-21T21:13:20.194Z,6.93
2023-01-21T21:16:44.322Z,6.75
2023-01-21T21:19:44.260Z,7.77
2023-01-21T21:23:09.409Z,6.95
2023-01-21T21:26:09.277Z,7.17
2023-01-21T21:29:35.338Z,6.70
2023-01-21T21:32:35.473Z,6.70
2023-01-21T21:35:59.383Z,7.53
2023-01-21T21:39:11.335Z,7.30
2023-01-21T21:42:43.801Z,7.60
2023-01-21T21:46:00.455Z,7.10
2023-01-21T21:49:12.373Z,8.05
2023-01-21T21:52:12.424Z,7.57
2023-01-21T21:55:25.381Z,7.20
2023-01-21T21:58:25.396Z,7.60
2023-01-21T22:01:52.455Z,8.00
2023-01-21T22:05:05.447Z,8.15
2023-01-21T22:08:05.456Z,7.27
2023-01-21T22:11:30.479Z,7.87
2023-01-21T22:14:30.487Z,8.07
2023-01-21T22:17:55.481Z,8.07
2023-01-21T22:20:55.510Z,7.93
2023-01-21T22:24:20.546Z,8.43
2023-01-21T22:27:20.434Z,7.97
2023-01-21T22:30:32.559Z,8.17
2023-01-21T22:33:45.559Z,7.33
2023-01-21T22:37:01.495Z,7.75
2023-01-21T22:40:01.536Z,7.95
2023-01-21T22:43:13.568Z,8.40
2023-01-21T22:46:25.622Z,8.30
2023-01-21T22:49:51.498Z,7.87
2023-01-21T22:52:51.562Z,9.43
2023-01-21T22:56:19.583Z,7.63
2023-01-21T22:59:19.581Z,7.55
2023-01-21T23:02:31.572Z,7.10
2023-01-21T23:05:46.657Z,7.55
2023-01-21T23:08:58.589Z,8.00
2023-01-21T23:11:58.691Z,7.40
2023-01-21T23:15:10.658Z,8.03
2023-01-21T23:18:10.642Z,7.80
2023-01-21T23:21:39.690Z,7.43
2023-01-21T23:24:39.662Z,7.20
2023-01-21T23:27:52.642Z,7.40
2023-01-21T23:30:52.871Z,7.30
2023-01-21T23:34:17.742Z,6.93
2023-01-21T23:37:30.701Z,7.30
2023-01-21T23:40:42.729Z,6.90
2023-01-21T23:43:42.732Z,7.00
2023-01-21T23:46:56.752Z,7.75
2023-01-21T23:49:57.710Z,7.43
2023-01-21T23:53:24.830Z,7.40
2023-01-21T23:56:36.731Z,8.07
